createdAt,value
2023-02-25T00:01:27.373Z,516.36145
2023-02-25T00:06:29.056Z,559.57235
2023-02-25T00:11:30.678Z,589.57885
2023-02-25T00:16:32.430Z,559.6845
2023-02-25T00:21:34.088Z,477.1
2023-02-25T00:26:35.684Z,428.46775
2023-02-25T00:31:37.477Z,369.5443
2023-02-25T00:36:39.299Z,301.69495
2023-02-25T00:41:40.868Z,258.26345
2023-02-25T00:46:42.574Z,213.5598
2023-02-25T00:51:44.211Z,176.2513
2023-02-25T00:56:45.864Z,143.77465
2023-02-25T01:01:47.511Z,120.16875
2023-02-25T01:06:49.087Z,95.0321
2023-02-25T01:11:50.982Z,71.97955
2023-02-25T01:16:52.645Z,54.5518
2023-02-25T01:21:54.449Z,37.36365
2023-02-25T01:26:56.128Z,21.46665
2023-02-25T01:31:58.105Z,12.17185
2023-02-25T01:36:59.826Z,6.17815
2023-02-25T01:42:01.486Z,2.50815
2023-02-25T01:47:03.129Z,1.16185
2023-02-25T01:52:04.699Z,0.88715
2023-02-25T01:57:06.386Z,0
2023-02-25T02:02:08.077Z,0
2023-02-25T02:07:09.770Z,0
2023-02-25T02:12:11.403Z,0
2023-02-25T02:17:13.083Z,0
2023-02-25T02:22:14.739Z,0
2023-02-25T02:27:16.588Z,0
2023-02-25T02:32:18.375Z,0
2023-02-25T02:37:20.098Z,0
2023-02-25T02:42:21.738Z,0
2023-02-25T02:47:23.317Z,0
2023-02-25T02:52:24.949Z,0
2023-02-25T02:57:26.580Z,0
2023-02-25T03:02:28.208Z,0
2023-02-25T03:07:29.992Z,0
2023-02-25T03:12:32.309Z,0
2023-02-25T03:17:33.936Z,0
2023-02-25T03:22:35.808Z,0
2023-02-25T03:27:37.427Z,0
2023-02-25T03:32:39.094Z,0
2023-02-25T03:37:40.767Z,0
2023-02-25T03:42:42.386Z,0
2023-02-25T03:47:44.125Z,0
2023-02-25T03:52:45.977Z,0
2023-02-25T03:57:47.844Z,0
2023-02-25T04:02:49.551Z,0
2023-02-25T04:07:51.236Z,0
2023-02-25T04:12:52.902Z,0
2023-02-25T04:17:54.500Z,0
2023-02-25T04:22:56.139Z,0
2023-02-25T04:27:57.767Z,0
2023-02-25T04:32:59.344Z,0
2023-02-25T04:38:00.952Z,0
2023-02-25T04:43:02.730Z,0
2023-02-25T04:48:04.329Z,0
2023-02-25T04:53:05.991Z,0
2023-02-25T04:58:07.662Z,0
2023-02-25T05:03:09.305Z,0
2023-02-25T05:08:10.928Z,0
2023-02-25T05:13:12.543Z,0
2023-02-25T05:18:14.160Z,0
2023-02-25T05:23:15.822Z,0
2023-02-25T05:28:17.453Z,0
2023-02-25T05:33:19.045Z,0
2023-02-25T05:38:20.697Z,0
2023-02-25T05:43:22.338Z,0
2023-02-25T05:48:24.003Z,0
2023-02-25T05:53:25.837Z,0
2023-02-25T05:58:27.465Z,0
2023-02-25T06:03:29.128Z,0
2023-02-25T06:08:30.729Z,0
2023-02-25T06:13:32.486Z,0
2023-02-25T06:18:34.136Z,0
2023-02-25T06:23:35.782Z,0
2023-02-25T06:28:37.455Z,0
2023-02-25T06:33:39.104Z,0
2023-02-25T06:38:40.689Z,0
2023-02-25T06:43:42.337Z,0
2023-02-25T06:48:44.000Z,0
2023-02-25T06:53:45.869Z,0
2023-02-25T06:58:47.495Z,0
2023-02-25T07:03:49.118Z,0
2023-02-25T07:08:50.957Z,0
2023-02-25T07:13:52.755Z,0
2023-02-25T07:18:54.423Z,0
2023-02-25T07:23:55.977Z,0
2023-02-25T07:28:57.613Z,0
2023-02-25T07:33:59.279Z,0
2023-02-25T07:39:00.910Z,0
2023-02-25T07:44:02.527Z,0
2023-02-25T07:49:04.298Z,0
2023-02-25T07:54:06.187Z,0
2023-02-25T07:59:07.817Z,0
2023-02-25T08:04:09.477Z,0
2023-02-25T08:09:11.208Z,0
2023-02-25T08:14:12.831Z,0
2023-02-25T08:19:14.487Z,0
2023-02-25T08:24:16.177Z,0
2023-02-25T08:29:17.787Z,0
2023-02-25T08:34:19.550Z,0
2023-02-25T08:39:21.204Z,0
2023-02-25T08:44:22.804Z,0
2023-02-25T08:49:24.405Z,0
2023-02-25T08:54:25.989Z,0
2023-02-25T08:59:27.668Z,0
2023-02-25T09:04:29.401Z,0
2023-02-25T09:09:31.034Z,0
2023-02-25T09:14:32.691Z,0
2023-02-25T09:19:34.332Z,0
2023-02-25T09:24:36.009Z,0
2023-02-25T09:29:37.594Z,0
2023-02-25T09:34:39.232Z,0
2023-02-25T09:39:40.873Z,0
2023-02-25T09:44:42.529Z,0
2023-02-25T09:49:44.112Z,0
2023-02-25T09:54:45.770Z,0
2023-02-25T09:59:47.403Z,0
2023-02-25T10:04:48.972Z,0
2023-02-25T10:09:50.803Z,0
2023-02-25T10:14:52.479Z,0
2023-02-25T10:19:54.065Z,0
2023-02-25T10:24:55.712Z,0
2023-02-25T10:29:57.292Z,0
2023-02-25T10:34:58.910Z,0
2023-02-25T10:40:02.934Z,0
2023-02-25T10:45:06.145Z,0
2023-02-25T10:50:07.778Z,0
2023-02-25T10:55:09.444Z,0
2023-02-25T11:00:11.120Z,0
2023-02-25T11:05:12.768Z,0
2023-02-25T11:10:14.400Z,0
2023-02-25T11:15:16.045Z,0
2023-02-25T11:20:17.785Z,0
2023-02-25T11:25:19.461Z,0
2023-02-25T11:30:21.164Z,0
2023-02-25T11:35:22.827Z,0
2023-02-25T11:40:24.645Z,0
2023-02-25T11:45:26.256Z,0
2023-02-25T11:50:27.873Z,0
2023-02-25T11:55:29.497Z,0
2023-02-25T12:00:31.172Z,0
2023-02-25T12:05:32.812Z,0
2023-02-25T12:10:34.415Z,0
2023-02-25T12:15:35.979Z,0
2023-02-25T12:20:37.538Z,0
2023-02-25T12:25:39.171Z,0
2023-02-25T12:30:40.813Z,0
2023-02-25T12:35:42.393Z,0
2023-02-25T12:40:44.017Z,0
2023-02-25T12:45:45.716Z,0
2023-02-25T12:50:47.416Z,0
2023-02-25T12:55:49.043Z,0
2023-02-25T13:00:50.794Z,0
2023-02-25T13:05:52.462Z,0
2023-02-25T13:10:54.077Z,0
2023-02-25T13:15:55.684Z,0
2023-02-25T13:20:57.289Z,0
2023-02-25T13:25:58.907Z,0
2023-02-25T13:31:00.660Z,0
2023-02-25T13:36:02.311Z,0
2023-02-25T13:41:03.934Z,0
2023-02-25T13:46:05.616Z,0
2023-02-25T13:51:07.289Z,0
2023-02-25T13:56:08.884Z,0
2023-02-25T14:01:10.677Z,0
2023-02-25T14:06:12.371Z,0
2023-02-25T14:11:13.998Z,0
2023-02-25T14:16:15.613Z,0
2023-02-25T14:21:17.275Z,1.3463
2023-02-25T14:26:18.865Z,6.9711
2023-02-25T14:31:20.566Z,9.6637
2023-02-25T14:36:22.454Z,18.9585
2023-02-25T14:41:24.542Z,33.69365
2023-02-25T14:46:26.424Z,47.8203
2023-02-25T14:51:28.128Z,65.6911
2023-02-25T14:56:29.821Z,91.34495
2023-02-25T15:01:31.507Z,113.27365
2023-02-25T15:06:33.128Z,142.4492
2023-02-25T15:11:34.742Z,165.188
2023-02-25T15:16:36.363Z,185.1049
2023-02-25T15:21:37.986Z,209.37445
2023-02-25T15:26:39.609Z,217.06435
2023-02-25T15:31:41.347Z,245.871
2023-02-25T15:36:43.148Z,289.35765
2023-02-25T15:41:44.801Z,343.79915
2023-02-25T15:46:46.509Z,404.12405
2023-02-25T15:51:48.225Z,383.17275
2023-02-25T15:56:49.937Z,463.69215
2023-02-25T16:01:51.598Z,551.2758
2023-02-25T16:06:53.266Z,683.56495
2023-02-25T16:11:54.863Z,662.70495
2023-02-25T16:16:57.424Z,716.38965
2023-02-25T16:21:59.222Z,981.2817
2023-02-25T16:27:00.848Z,858.5821
2023-02-25T16:32:02.790Z,745.60135
2023-02-25T16:37:04.556Z,781.69285
2023-02-25T16:42:06.205Z,830.8233
2023-02-25T16:47:07.814Z,802.6613
2023-02-25T16:52:09.469Z,802.56815
2023-02-25T16:57:11.068Z,962.3348
2023-02-25T17:02:12.694Z,949.05625
2023-02-25T17:07:14.341Z,955.6946
2023-02-25T17:12:15.963Z,1106.25775
2023-02-25T17:17:17.851Z,1186.722
2023-02-25T17:22:19.612Z,1130.5463
2023-02-25T17:27:21.255Z,1062.0143
2023-02-25T17:32:23.063Z,960.2127
2023-02-25T17:37:24.737Z,989.36925
2023-02-25T17:42:26.367Z,972.23625
2023-02-25T17:47:27.994Z,971.97765
2023-02-25T17:52:29.611Z,988.00395
2023-02-25T17:57:31.272Z,1284.35355
2023-02-25T18:02:32.997Z,1442.57045
2023-02-25T18:07:34.977Z,1412.84155
2023-02-25T18:12:36.604Z,1096.2613
2023-02-25T18:17:38.245Z,923.67815
2023-02-25T18:22:39.889Z,885.50255
2023-02-25T18:27:41.573Z,846.2944
2023-02-25T18:32:43.256Z,911.0081
2023-02-25T18:37:44.921Z,991.3792
2023-02-25T18:42:46.547Z,977.49215
2023-02-25T18:47:48.153Z,1009.7292
2023-02-25T18:52:49.735Z,1072.06405
2023-02-25T18:57:51.377Z,1085.87695
2023-02-25T19:02:53.155Z,1226.07475
2023-02-25T19:07:54.821Z,1398.82335
2023-02-25T19:12:56.610Z,1107.8228
2023-02-25T19:17:58.482Z,1112.5805
2023-02-25T19:23:00.136Z,1058.93195
2023-02-25T19:28:01.772Z,991.78425
2023-02-25T19:33:04.876Z,988.61245
2023-02-25T19:38:06.729Z,1125.5643
2023-02-25T19:43:08.334Z,1163.2607
2023-02-25T19:48:09.960Z,1326.64035
2023-02-25T19:53:11.807Z,1261.16985
2023-02-25T19:58:13.444Z,1068.9094
2023-02-25T20:03:15.134Z,943.20715
2023-02-25T20:08:16.896Z,857.94905
2023-02-25T20:13:18.530Z,902.0632
2023-02-25T20:18:20.170Z,938.6529
2023-02-25T20:23:21.757Z,1009.06555
2023-02-25T20:28:23.392Z,937.8048
2023-02-25T20:33:24.980Z,872.77735
2023-02-25T20:38:26.734Z,955.60145
2023-02-25T20:43:28.374Z,1035.5295
2023-02-25T20:48:30.001Z,1096.38875
2023-02-25T20:53:31.650Z,1452.5822
2023-02-25T20:58:33.340Z,1790.33435
2023-02-25T21:03:35.018Z,1630.716
2023-02-25T21:08:36.663Z,1548.57455
2023-02-25T21:13:38.291Z,1195.0737
2023-02-25T21:18:39.931Z,1010.52215
2023-02-25T21:23:41.666Z,1013.95255
2023-02-25T21:28:43.279Z,995.97145
2023-02-25T21:33:44.980Z,892.23405
2023-02-25T21:38:46.566Z,844.76365
2023-02-25T21:43:48.448Z,786.17295
2023-02-25T21:48:50.105Z,803.9696
2023-02-25T21:53:51.782Z,788.9207
2023-02-25T21:58:53.538Z,758.2144
2023-02-25T22:03:55.312Z,700.65625
2023-02-25T22:08:56.999Z,607.43065
2023-02-25T22:13:58.606Z,613.42435
2023-02-25T22:19:00.251Z,534.76845
2023-02-25T22:24:02.089Z,474.1488
2023-02-25T22:29:03.785Z,468.1551
2023-02-25T22:34:05.439Z,482.65065
2023-02-25T22:39:07.067Z,484.36585
2023-02-25T22:44:08.696Z,449.9344
2023-02-25T22:49:10.540Z,418.1214
2023-02-25T22:54:12.191Z,369.1944
2023-02-25T22:59:13.929Z,346.62105
2023-02-25T23:04:15.547Z,330.96365
2023-02-25T23:09:17.156Z,311.0829
2023-02-25T23:14:18.879Z,280.3766
2023-02-25T23:19:20.525Z,262.3955
2023-02-25T23:24:22.174Z,265.88105
2023-02-25T23:29:23.921Z,270.1044
2023-02-25T23:34:25.577Z,250.22365
2023-02-25T23:39:27.170Z,226.0644
2023-02-25T23:44:28.824Z,204.46845
2023-02-25T23:49:30.547Z,191.13475
2023-02-25T23:54:32.232Z,176.2703
2023-02-25T23:59:33.939Z,170.46105
